sensor_id;sensor_type;location;lat;lon;timestamp;temperature;humidity
22430;DHT22;11382;48.086;11.632;2022-09-30T00:01:35;8.50;99.90
22430;DHT22;11382;48.086;11.632;2022-09-30T00:04:06;8.40;99.90
22430;DHT22;11382;48.086;11.632;2022-09-30T00:06:34;8.50;99.90
22430;DHT22;11382;48.086;11.632;2022-09-30T00:09:03;8.60;99.90
22430;DHT22;11382;48.086;11.632;2022-09-30T00:11:33;8.70;99.90
22430;DHT22;11382;48.086;11.632;2022-09-30T00:14:03;8.60;99.90
22430;DHT22;11382;48.086;11.632;2022-09-30T00:16:34;8.70;99.90
22430;DHT22;11382;48.086;11.632;2022-09-30T00:19:02;8.70;99.90
22430;DHT22;11382;48.086;11.632;2022-09-30T00:21:31;8.70;99.90
22430;DHT22;11382;48.086;11.632;2022-09-30T00:24:00;8.70;99.90
22430;DHT22;11382;48.086;11.632;2022-09-30T00:26:28;8.70;99.90
22430;DHT22;11382;48.086;11.632;2022-09-30T00:28:58;8.70;99.90
22430;DHT22;11382;48.086;11.632;2022-09-30T00:31:30;8.70;99.90
22430;DHT22;11382;48.086;11.632;2022-09-30T00:33:58;8.60;99.90
22430;DHT22;11382;48.086;11.632;2022-09-30T00:36:40;8.70;99.90
22430;DHT22;11382;48.086;11.632;2022-09-30T00:39:11;8.70;99.90
22430;DHT22;11382;48.086;11.632;2022-09-30T00:41:39;8.70;99.90
22430;DHT22;11382;48.086;11.632;2022-09-30T00:44:46;8.60;99.90
22430;DHT22;11382;48.086;11.632;2022-09-30T00:47:43;8.50;99.90
22430;DHT22;11382;48.086;11.632;2022-09-30T00:50:18;8.60;99.90
22430;DHT22;11382;48.086;11.632;2022-09-30T00:52:50;8.60;99.90
22430;DHT22;11382;48.086;11.632;2022-09-30T00:55:26;8.70;99.90
22430;DHT22;11382;48.086;11.632;2022-09-30T00:57:57;8.50;99.90
22430;DHT22;11382;48.086;11.632;2022-09-30T01:00:25;8.50;99.90
22430;DHT22;11382;48.086;11.632;2022-09-30T01:02:55;8.40;99.90
22430;DHT22;11382;48.086;11.632;2022-09-30T01:05:25;8.40;99.90
22430;DHT22;11382;48.086;11.632;2022-09-30T01:07:55;8.40;99.90
22430;DHT22;11382;48.086;11.632;2022-09-30T01:10:24;8.40;99.90
22430;DHT22;11382;48.086;11.632;2022-09-30T01:12:52;8.50;99.90
22430;DHT22;11382;48.086;11.632;2022-09-30T01:15:23;8.50;99.90
22430;DHT22;11382;48.086;11.632;2022-09-30T01:18:04;8.60;99.90
22430;DHT22;11382;48.086;11.632;2022-09-30T01:20:53;8.50;99.90
22430;DHT22;11382;48.086;11.632;2022-09-30T01:26:41;8.60;99.90
22430;DHT22;11382;48.086;11.632;2022-09-30T01:29:43;8.60;99.90
22430;DHT22;11382;48.086;11.632;2022-09-30T01:32:22;8.60;99.90
22430;DHT22;11382;48.086;11.632;2022-09-30T01:35:01;8.60;99.90
22430;DHT22;11382;48.086;11.632;2022-09-30T01:37:36;8.70;99.90
22430;DHT22;11382;48.086;11.632;2022-09-30T01:40:13;8.70;99.90
22430;DHT22;11382;48.086;11.632;2022-09-30T01:42:53;8.70;99.90
22430;DHT22;11382;48.086;11.632;2022-09-30T01:45:32;8.70;99.90
22430;DHT22;11382;48.086;11.632;2022-09-30T01:48:06;8.60;99.90
22430;DHT22;11382;48.086;11.632;2022-09-30T01:50:43;8.70;99.90
22430;DHT22;11382;48.086;11.632;2022-09-30T01:53:18;8.70;99.90
22430;DHT22;11382;48.086;11.632;2022-09-30T01:55:53;8.70;99.90
22430;DHT22;11382;48.086;11.632;2022-09-30T01:58:31;8.80;99.90
22430;DHT22;11382;48.086;11.632;2022-09-30T02:01:07;8.80;99.90
22430;DHT22;11382;48.086;11.632;2022-09-30T02:03:43;8.80;99.90
22430;DHT22;11382;48.086;11.632;2022-09-30T02:06:16;8.60;99.90
22430;DHT22;11382;48.086;11.632;2022-09-30T02:08:46;8.50;99.90
22430;DHT22;11382;48.086;11.632;2022-09-30T02:11:19;8.60;99.90
22430;DHT22;11382;48.086;11.632;2022-09-30T02:13:54;8.70;99.90
22430;DHT22;11382;48.086;11.632;2022-09-30T02:16:25;8.80;99.90
22430;DHT22;11382;48.086;11.632;2022-09-30T02:18:59;8.70;99.90
22430;DHT22;11382;48.086;11.632;2022-09-30T02:21:32;8.60;99.90
22430;DHT22;11382;48.086;11.632;2022-09-30T02:24:04;8.50;99.90
22430;DHT22;11382;48.086;11.632;2022-09-30T02:26:37;8.50;99.90
22430;DHT22;11382;48.086;11.632;2022-09-30T02:29:09;8.60;99.90
22430;DHT22;11382;48.086;11.632;2022-09-30T02:31:40;8.70;99.90
22430;DHT22;11382;48.086;11.632;2022-09-30T02:34:12;8.70;99.90
22430;DHT22;11382;48.086;11.632;2022-09-30T02:36:44;8.60;99.90
22430;DHT22;11382;48.086;11.632;2022-09-30T02:39:19;8.60;99.90
22430;DHT22;11382;48.086;11.632;2022-09-30T02:41:51;8.60;99.90
22430;DHT22;11382;48.086;11.632;2022-09-30T02:44:20;8.60;99.90
22430;DHT22;11382;48.086;11.632;2022-09-30T02:46:56;8.50;99.90
22430;DHT22;11382;48.086;11.632;2022-09-30T02:49:31;8.50;99.90
22430;DHT22;11382;48.086;11.632;2022-09-30T02:52:10;8.50;99.90
22430;DHT22;11382;48.086;11.632;2022-09-30T02:54:49;8.40;99.90
22430;DHT22;11382;48.086;11.632;2022-09-30T02:57:26;8.40;99.90
22430;DHT22;11382;48.086;11.632;2022-09-30T02:59:59;8.20;99.90
22430;DHT22;11382;48.086;11.632;2022-09-30T03:02:29;8.30;99.90
22430;DHT22;11382;48.086;11.632;2022-09-30T03:04:59;8.20;99.90
22430;DHT22;11382;48.086;11.632;2022-09-30T03:07:27;8.20;99.90
22430;DHT22;11382;48.086;11.632;2022-09-30T03:09:56;8.30;99.90
22430;DHT22;11382;48.086;11.632;2022-09-30T03:12:33;8.30;99.90
22430;DHT22;11382;48.086;11.632;2022-09-30T03:18:10;8.40;99.90
22430;DHT22;11382;48.086;11.632;2022-09-30T03:20:54;8.20;99.90
22430;DHT22;11382;48.086;11.632;2022-09-30T03:23:39;8.20;99.90
22430;DHT22;11382;48.086;11.632;2022-09-30T03:26:18;8.20;99.90
22430;DHT22;11382;48.086;11.632;2022-09-30T03:28:54;8.00;99.90
22430;DHT22;11382;48.086;11.632;2022-09-30T03:31:31;8.00;99.90
22430;DHT22;11382;48.086;11.632;2022-09-30T03:34:12;8.00;99.90
22430;DHT22;11382;48.086;11.632;2022-09-30T03:36:50;8.00;99.90
22430;DHT22;11382;48.086;11.632;2022-09-30T03:39:25;8.00;99.90
22430;DHT22;11382;48.086;11.632;2022-09-30T03:41:59;8.00;99.90
22430;DHT22;11382;48.086;11.632;2022-09-30T03:44:35;8.10;99.90
22430;DHT22;11382;48.086;11.632;2022-09-30T03:47:08;8.00;99.90
22430;DHT22;11382;48.086;11.632;2022-09-30T03:49:41;8.00;99.90
22430;DHT22;11382;48.086;11.632;2022-09-30T03:52:13;8.00;99.90
22430;DHT22;11382;48.086;11.632;2022-09-30T03:54:47;8.10;99.90
22430;DHT22;11382;48.086;11.632;2022-09-30T03:57:16;8.00;99.90
22430;DHT22;11382;48.086;11.632;2022-09-30T03:59:44;8.10;99.90
22430;DHT22;11382;48.086;11.632;2022-09-30T04:02:12;8.10;99.90
22430;DHT22;11382;48.086;11.632;2022-09-30T04:04:40;8.00;99.90
22430;DHT22;11382;48.086;11.632;2022-09-30T04:07:09;8.00;99.90
22430;DHT22;11382;48.086;11.632;2022-09-30T04:09:39;8.00;99.90
22430;DHT22;11382;48.086;11.632;2022-09-30T04:12:07;8.00;99.90
22430;DHT22;11382;48.086;11.632;2022-09-30T04:14:36;7.90;99.90
22430;DHT22;11382;48.086;11.632;2022-09-30T04:17:04;8.00;99.90
22430;DHT22;11382;48.086;11.632;2022-09-30T04:19:32;8.00;99.90
22430;DHT22;11382;48.086;11.632;2022-09-30T04:22:03;8.10;99.90
22430;DHT22;11382;48.086;11.632;2022-09-30T04:24:31;8.20;99.90
22430;DHT22;11382;48.086;11.632;2022-09-30T04:27:01;8.30;99.90
22430;DHT22;11382;48.086;11.632;2022-09-30T04:29:31;8.30;99.90
22430;DHT22;11382;48.086;11.632;2022-09-30T04:32:00;8.30;99.90
22430;DHT22;11382;48.086;11.632;2022-09-30T04:34:28;8.30;99.90
22430;DHT22;11382;48.086;11.632;2022-09-30T04:36:56;8.30;99.90
22430;DHT22;11382;48.086;11.632;2022-09-30T04:39:23;8.30;99.90
22430;DHT22;11382;48.086;11.632;2022-09-30T04:41:51;8.30;99.90
22430;DHT22;11382;48.086;11.632;2022-09-30T04:44:21;8.20;99.90
22430;DHT22;11382;48.086;11.632;2022-09-30T04:46:49;8.20;99.90
22430;DHT22;11382;48.086;11.632;2022-09-30T04:49:17;8.20;99.90
22430;DHT22;11382;48.086;11.632;2022-09-30T04:51:46;8.10;99.90
22430;DHT22;11382;48.086;11.632;2022-09-30T04:54:14;8.00;99.90
22430;DHT22;11382;48.086;11.632;2022-09-30T04:56:42;7.90;99.90
22430;DHT22;11382;48.086;11.632;2022-09-30T04:59:10;7.90;99.90
22430;DHT22;11382;48.086;11.632;2022-09-30T05:01:41;7.90;99.90
22430;DHT22;11382;48.086;11.632;2022-09-30T05:04:10;7.90;99.90
22430;DHT22;11382;48.086;11.632;2022-09-30T05:06:38;8.00;99.90
22430;DHT22;11382;48.086;11.632;2022-09-30T05:09:07;8.00;99.90
22430;DHT22;11382;48.086;11.632;2022-09-30T05:11:36;8.10;99.90
22430;DHT22;11382;48.086;11.632;2022-09-30T05:14:08;8.20;99.90
22430;DHT22;11382;48.086;11.632;2022-09-30T05:16:36;8.20;99.90
22430;DHT22;11382;48.086;11.632;2022-09-30T05:19:06;8.20;99.90
22430;DHT22;11382;48.086;11.632;2022-09-30T05:21:34;8.20;99.90
22430;DHT22;11382;48.086;11.632;2022-09-30T05:24:02;8.20;99.90
22430;DHT22;11382;48.086;11.632;2022-09-30T05:26:30;8.20;99.90
22430;DHT22;11382;48.086;11.632;2022-09-30T05:28:58;8.20;99.90
22430;DHT22;11382;48.086;11.632;2022-09-30T05:31:26;8.20;99.90
22430;DHT22;11382;48.086;11.632;2022-09-30T05:33:54;8.20;99.90
22430;DHT22;11382;48.086;11.632;2022-09-30T05:36:25;8.20;99.90
22430;DHT22;11382;48.086;11.632;2022-09-30T05:38:53;8.30;99.90
22430;DHT22;11382;48.086;11.632;2022-09-30T05:41:21;8.50;99.90
22430;DHT22;11382;48.086;11.632;2022-09-30T05:43:50;8.60;99.90
22430;DHT22;11382;48.086;11.632;2022-09-30T05:46:19;8.80;99.90
22430;DHT22;11382;48.086;11.632;2022-09-30T05:48:47;8.90;99.90
22430;DHT22;11382;48.086;11.632;2022-09-30T05:51:15;9.10;99.90
22430;DHT22;11382;48.086;11.632;2022-09-30T05:53:44;9.30;99.90
22430;DHT22;11382;48.086;11.632;2022-09-30T05:56:12;9.50;99.90
22430;DHT22;11382;48.086;11.632;2022-09-30T05:58:41;9.70;99.90
22430;DHT22;11382;48.086;11.632;2022-09-30T06:01:10;9.90;99.90
22430;DHT22;11382;48.086;11.632;2022-09-30T06:03:40;10.10;99.90
22430;DHT22;11382;48.086;11.632;2022-09-30T06:06:08;10.50;99.90
22430;DHT22;11382;48.086;11.632;2022-09-30T06:08:37;10.60;99.90
22430;DHT22;11382;48.086;11.632;2022-09-30T06:11:12;10.90;99.90
22430;DHT22;11382;48.086;11.632;2022-09-30T06:13:41;11.00;99.90
22430;DHT22;11382;48.086;11.632;2022-09-30T06:16:10;10.40;99.90
22430;DHT22;11382;48.086;11.632;2022-09-30T06:18:39;10.10;99.90
22430;DHT22;11382;48.086;11.632;2022-09-30T06:21:09;10.20;99.90
22430;DHT22;11382;48.086;11.632;2022-09-30T06:23:38;10.00;99.90
22430;DHT22;11382;48.086;11.632;2022-09-30T06:26:08;10.00;99.90
22430;DHT22;11382;48.086;11.632;2022-09-30T06:28:39;9.90;99.90
22430;DHT22;11382;48.086;11.632;2022-09-30T06:31:07;9.90;99.90
22430;DHT22;11382;48.086;11.632;2022-09-30T06:33:35;10.00;99.90
22430;DHT22;11382;48.086;11.632;2022-09-30T06:36:03;10.10;99.90
22430;DHT22;11382;48.086;11.632;2022-09-30T06:38:33;10.10;99.90
22430;DHT22;11382;48.086;11.632;2022-09-30T06:41:03;9.90;99.90
22430;DHT22;11382;48.086;11.632;2022-09-30T06:43:31;10.10;99.90
22430;DHT22;11382;48.086;11.632;2022-09-30T06:46:12;10.50;99.90
22430;DHT22;11382;48.086;11.632;2022-09-30T06:48:52;11.00;99.90
22430;DHT22;11382;48.086;11.632;2022-09-30T06:51:32;11.30;99.90
22430;DHT22;11382;48.086;11.632;2022-09-30T06:54:00;11.90;99.90
22430;DHT22;11382;48.086;11.632;2022-09-30T06:56:28;12.10;99.90
22430;DHT22;11382;48.086;11.632;2022-09-30T06:58:57;12.60;99.90
22430;DHT22;11382;48.086;11.632;2022-09-30T07:01:26;12.90;99.90
22430;DHT22;11382;48.086;11.632;2022-09-30T07:03:55;13.70;99.90
22430;DHT22;11382;48.086;11.632;2022-09-30T07:06:25;14.30;99.90
22430;DHT22;11382;48.086;11.632;2022-09-30T07:08:53;15.60;99.90
22430;DHT22;11382;48.086;11.632;2022-09-30T07:11:23;16.50;99.90
22430;DHT22;11382;48.086;11.632;2022-09-30T07:13:51;17.20;99.90
22430;DHT22;11382;48.086;11.632;2022-09-30T07:16:19;16.80;99.90
22430;DHT22;11382;48.086;11.632;2022-09-30T07:18:49;16.30;99.90
22430;DHT22;11382;48.086;11.632;2022-09-30T07:21:17;15.40;99.90
22430;DHT22;11382;48.086;11.632;2022-09-30T07:23:45;15.40;99.90
22430;DHT22;11382;48.086;11.632;2022-09-30T07:26:15;15.30;99.90
22430;DHT22;11382;48.086;11.632;2022-09-30T07:28:44;15.20;99.90
22430;DHT22;11382;48.086;11.632;2022-09-30T07:31:14;15.80;99.90
22430;DHT22;11382;48.086;11.632;2022-09-30T07:34:03;16.00;99.90
22430;DHT22;11382;48.086;11.632;2022-09-30T07:36:33;15.50;99.90
22430;DHT22;11382;48.086;11.632;2022-09-30T07:39:02;15.60;99.90
22430;DHT22;11382;48.086;11.632;2022-09-30T07:41:35;15.40;99.90
22430;DHT22;11382;48.086;11.632;2022-09-30T07:44:04;15.50;99.90
22430;DHT22;11382;48.086;11.632;2022-09-30T07:46:34;15.80;99.90
22430;DHT22;11382;48.086;11.632;2022-09-30T07:49:09;17.50;99.90
22430;DHT22;11382;48.086;11.632;2022-09-30T07:51:41;19.30;99.90
22430;DHT22;11382;48.086;11.632;2022-09-30T07:54:13;18.10;99.90
22430;DHT22;11382;48.086;11.632;2022-09-30T07:56:42;17.40;99.90
22430;DHT22;11382;48.086;11.632;2022-09-30T07:59:32;16.80;99.90
22430;DHT22;11382;48.086;11.632;2022-09-30T08:02:01;16.60;99.90
22430;DHT22;11382;48.086;11.632;2022-09-30T08:04:31;16.60;99.90
22430;DHT22;11382;48.086;11.632;2022-09-30T08:07:00;16.60;99.90
22430;DHT22;11382;48.086;11.632;2022-09-30T08:09:29;17.70;99.90
22430;DHT22;11382;48.086;11.632;2022-09-30T08:11:57;19.60;99.90
22430;DHT22;11382;48.086;11.632;2022-09-30T08:14:27;22.10;99.90
22430;DHT22;11382;48.086;11.632;2022-09-30T08:16:55;23.70;96.80
22430;DHT22;11382;48.086;11.632;2022-09-30T08:19:27;24.00;93.50
22430;DHT22;11382;48.086;11.632;2022-09-30T08:21:56;23.80;94.20
22430;DHT22;11382;48.086;11.632;2022-09-30T08:24:25;21.90;94.90
22430;DHT22;11382;48.086;11.632;2022-09-30T08:26:54;20.90;97.00
22430;DHT22;11382;48.086;11.632;2022-09-30T08:29:22;19.80;97.00
22430;DHT22;11382;48.086;11.632;2022-09-30T08:32:10;18.80;99.90
22430;DHT22;11382;48.086;11.632;2022-09-30T08:34:38;18.50;99.90
22430;DHT22;11382;48.086;11.632;2022-09-30T08:37:07;18.20;99.90
22430;DHT22;11382;48.086;11.632;2022-09-30T08:39:36;17.30;99.90
22430;DHT22;11382;48.086;11.632;2022-09-30T08:42:26;17.60;99.90
22430;DHT22;11382;48.086;11.632;2022-09-30T08:45:20;17.10;99.90
22430;DHT22;11382;48.086;11.632;2022-09-30T08:47:59;17.00;99.90
22430;DHT22;11382;48.086;11.632;2022-09-30T08:50:33;16.80;99.90
22430;DHT22;11382;48.086;11.632;2022-09-30T08:53:08;19.00;99.90
22430;DHT22;11382;48.086;11.632;2022-09-30T08:55:39;19.20;99.90
22430;DHT22;11382;48.086;11.632;2022-09-30T08:58:15;18.60;99.90
22430;DHT22;11382;48.086;11.632;2022-09-30T09:00:48;18.30;99.90
22430;DHT22;11382;48.086;11.632;2022-09-30T09:03:17;17.70;99.90
22430;DHT22;11382;48.086;11.632;2022-09-30T09:05:53;17.00;99.90
22430;DHT22;11382;48.086;11.632;2022-09-30T09:08:31;16.00;99.90
22430;DHT22;11382;48.086;11.632;2022-09-30T09:11:05;15.60;99.90
22430;DHT22;11382;48.086;11.632;2022-09-30T09:13:45;15.80;99.90
22430;DHT22;11382;48.086;11.632;2022-09-30T09:16:21;16.10;99.90
22430;DHT22;11382;48.086;11.632;2022-09-30T09:18:58;15.80;99.90
22430;DHT22;11382;48.086;11.632;2022-09-30T09:21:35;15.40;99.90
22430;DHT22;11382;48.086;11.632;2022-09-30T09:24:13;15.10;99.90
22430;DHT22;11382;48.086;11.632;2022-09-30T09:26:41;15.20;99.90
22430;DHT22;11382;48.086;11.632;2022-09-30T09:29:31;15.10;99.90
22430;DHT22;11382;48.086;11.632;2022-09-30T09:32:10;15.30;99.90
22430;DHT22;11382;48.086;11.632;2022-09-30T09:34:40;15.70;99.90
22430;DHT22;11382;48.086;11.632;2022-09-30T09:37:15;16.10;99.90
22430;DHT22;11382;48.086;11.632;2022-09-30T09:40:02;15.80;99.90
22430;DHT22;11382;48.086;11.632;2022-09-30T09:42:54;15.70;99.90
22430;DHT22;11382;48.086;11.632;2022-09-30T09:45:29;15.90;99.90
22430;DHT22;11382;48.086;11.632;2022-09-30T09:48:02;15.90;99.90
22430;DHT22;11382;48.086;11.632;2022-09-30T09:50:40;15.30;99.90
22430;DHT22;11382;48.086;11.632;2022-09-30T09:53:22;15.40;99.90
22430;DHT22;11382;48.086;11.632;2022-09-30T09:55:55;15.60;99.90
22430;DHT22;11382;48.086;11.632;2022-09-30T09:58:25;15.70;99.90
22430;DHT22;11382;48.086;11.632;2022-09-30T10:01:08;15.10;99.90
22430;DHT22;11382;48.086;11.632;2022-09-30T10:04:10;14.50;99.90
22430;DHT22;11382;48.086;11.632;2022-09-30T10:06:50;14.60;99.90
22430;DHT22;11382;48.086;11.632;2022-09-30T10:09:24;15.40;99.90
22430;DHT22;11382;48.086;11.632;2022-09-30T10:12:20;16.00;99.90
22430;DHT22;11382;48.086;11.632;2022-09-30T10:14:58;16.50;99.90
22430;DHT22;11382;48.086;11.632;2022-09-30T10:17:28;16.30;99.90
22430;DHT22;11382;48.086;11.632;2022-09-30T10:20:05;15.90;99.90
22430;DHT22;11382;48.086;11.632;2022-09-30T10:22:35;15.70;99.90
22430;DHT22;11382;48.086;11.632;2022-09-30T10:25:20;15.70;99.90
22430;DHT22;11382;48.086;11.632;2022-09-30T10:27:55;16.50;99.90
22430;DHT22;11382;48.086;11.632;2022-09-30T10:30:38;17.00;99.90
22430;DHT22;11382;48.086;11.632;2022-09-30T10:33:11;17.50;99.90
22430;DHT22;11382;48.086;11.632;2022-09-30T10:35:53;17.60;99.90
22430;DHT22;11382;48.086;11.632;2022-09-30T10:38:23;17.20;99.90
22430;DHT22;11382;48.086;11.632;2022-09-30T10:40:51;18.50;99.90
22430;DHT22;11382;48.086;11.632;2022-09-30T10:43:24;21.30;99.90
22430;DHT22;11382;48.086;11.632;2022-09-30T10:45:53;21.80;98.20
22430;DHT22;11382;48.086;11.632;2022-09-30T10:48:47;22.60;97.00
22430;DHT22;11382;48.086;11.632;2022-09-30T10:51:31;23.30;95.90
22430;DHT22;11382;48.086;11.632;2022-09-30T10:54:03;23.20;94.30
22430;DHT22;11382;48.086;11.632;2022-09-30T10:56:33;22.10;95.30
22430;DHT22;11382;48.086;11.632;2022-09-30T10:59:10;21.10;95.90
22430;DHT22;11382;48.086;11.632;2022-09-30T11:01:47;20.90;97.00
22430;DHT22;11382;48.086;11.632;2022-09-30T11:04:26;19.60;97.00
22430;DHT22;11382;48.086;11.632;2022-09-30T11:07:01;18.90;99.90
22430;DHT22;11382;48.086;11.632;2022-09-30T11:09:46;17.90;99.90
22430;DHT22;11382;48.086;11.632;2022-09-30T11:12:19;18.30;99.90
22430;DHT22;11382;48.086;11.632;2022-09-30T11:14:57;18.20;99.90
22430;DHT22;11382;48.086;11.632;2022-09-30T11:17:33;18.30;99.90
22430;DHT22;11382;48.086;11.632;2022-09-30T11:20:14;17.40;99.90
22430;DHT22;11382;48.086;11.632;2022-09-30T11:22:56;17.80;99.90
22430;DHT22;11382;48.086;11.632;2022-09-30T11:25:33;17.20;99.90
22430;DHT22;11382;48.086;11.632;2022-09-30T11:28:24;17.10;99.90
22430;DHT22;11382;48.086;11.632;2022-09-30T11:31:01;16.50;99.90
22430;DHT22;11382;48.086;11.632;2022-09-30T11:33:42;16.50;99.90
22430;DHT22;11382;48.086;11.632;2022-09-30T11:36:22;16.40;99.90
22430;DHT22;11382;48.086;11.632;2022-09-30T11:39:17;16.30;99.90
22430;DHT22;11382;48.086;11.632;2022-09-30T11:41:54;16.20;99.90
22430;DHT22;11382;48.086;11.632;2022-09-30T11:44:29;16.00;99.90
22430;DHT22;11382;48.086;11.632;2022-09-30T11:47:18;16.70;99.90
22430;DHT22;11382;48.086;11.632;2022-09-30T11:50:03;16.40;99.90
22430;DHT22;11382;48.086;11.632;2022-09-30T11:52:45;16.20;99.90
22430;DHT22;11382;48.086;11.632;2022-09-30T11:55:40;16.50;99.90
22430;DHT22;11382;48.086;11.632;2022-09-30T11:58:15;16.60;99.90
22430;DHT22;11382;48.086;11.632;2022-09-30T12:01:14;16.80;99.90
22430;DHT22;11382;48.086;11.632;2022-09-30T12:03:53;17.20;99.90
22430;DHT22;11382;48.086;11.632;2022-09-30T12:06:27;16.90;99.90
22430;DHT22;11382;48.086;11.632;2022-09-30T12:09:05;16.80;99.90
22430;DHT22;11382;48.086;11.632;2022-09-30T12:11:41;16.50;99.90
22430;DHT22;11382;48.086;11.632;2022-09-30T12:14:16;16.80;99.90
22430;DHT22;11382;48.086;11.632;2022-09-30T12:16:46;16.90;99.90
22430;DHT22;11382;48.086;11.632;2022-09-30T12:19:23;17.00;99.90
22430;DHT22;11382;48.086;11.632;2022-09-30T12:21:56;17.40;99.90
22430;DHT22;11382;48.086;11.632;2022-09-30T12:24:30;17.40;99.90
22430;DHT22;11382;48.086;11.632;2022-09-30T12:26:59;17.20;99.90
22430;DHT22;11382;48.086;11.632;2022-09-30T12:29:31;17.00;99.90
22430;DHT22;11382;48.086;11.632;2022-09-30T12:35:39;16.40;99.90
22430;DHT22;11382;48.086;11.632;2022-09-30T12:38:35;16.40;99.90
22430;DHT22;11382;48.086;11.632;2022-09-30T12:41:22;16.30;99.90
22430;DHT22;11382;48.086;11.632;2022-09-30T12:44:25;16.60;99.90
22430;DHT22;11382;48.086;11.632;2022-09-30T12:47:05;16.70;99.90
22430;DHT22;11382;48.086;11.632;2022-09-30T12:49:38;17.30;99.90
22430;DHT22;11382;48.086;11.632;2022-09-30T12:52:19;17.50;99.90
22430;DHT22;11382;48.086;11.632;2022-09-30T12:54:52;17.50;99.90
22430;DHT22;11382;48.086;11.632;2022-09-30T12:57:24;17.20;99.90
22430;DHT22;11382;48.086;11.632;2022-09-30T12:59:56;16.80;99.90
22430;DHT22;11382;48.086;11.632;2022-09-30T13:02:30;16.20;99.90
22430;DHT22;11382;48.086;11.632;2022-09-30T13:08:31;15.70;99.90
22430;DHT22;11382;48.086;11.632;2022-09-30T13:11:04;15.50;99.90
22430;DHT22;11382;48.086;11.632;2022-09-30T13:13:55;15.50;99.90
22430;DHT22;11382;48.086;11.632;2022-09-30T13:19:31;16.60;99.90
22430;DHT22;11382;48.086;11.632;2022-09-30T13:25:20;17.30;99.90
22430;DHT22;11382;48.086;11.632;2022-09-30T13:27:51;17.20;99.90
22430;DHT22;11382;48.086;11.632;2022-09-30T13:30:40;17.10;99.90
22430;DHT22;11382;48.086;11.632;2022-09-30T13:33:29;16.90;99.90
22430;DHT22;11382;48.086;11.632;2022-09-30T13:36:05;16.80;99.90
22430;DHT22;11382;48.086;11.632;2022-09-30T13:38:37;16.40;99.90
22430;DHT22;11382;48.086;11.632;2022-09-30T13:41:18;16.40;99.90
22430;DHT22;11382;48.086;11.632;2022-09-30T13:43:55;16.30;99.90
22430;DHT22;11382;48.086;11.632;2022-09-30T13:46:31;16.30;99.90
22430;DHT22;11382;48.086;11.632;2022-09-30T13:49:06;16.30;99.90
22430;DHT22;11382;48.086;11.632;2022-09-30T13:51:38;16.50;99.90
22430;DHT22;11382;48.086;11.632;2022-09-30T13:54:12;16.90;99.90
22430;DHT22;11382;48.086;11.632;2022-09-30T13:56:44;16.90;99.90
22430;DHT22;11382;48.086;11.632;2022-09-30T14:02:36;17.00;99.90
22430;DHT22;11382;48.086;11.632;2022-09-30T14:05:48;16.40;99.90
22430;DHT22;11382;48.086;11.632;2022-09-30T14:08:44;16.30;99.90
22430;DHT22;11382;48.086;11.632;2022-09-30T14:11:48;16.40;99.90
22430;DHT22;11382;48.086;11.632;2022-09-30T14:14:38;16.40;99.90
22430;DHT22;11382;48.086;11.632;2022-09-30T14:17:28;16.50;99.90
22430;DHT22;11382;48.086;11.632;2022-09-30T14:20:14;16.30;99.90
22430;DHT22;11382;48.086;11.632;2022-09-30T14:22:46;16.00;99.90
22430;DHT22;11382;48.086;11.632;2022-09-30T14:25:16;15.90;99.90
22430;DHT22;11382;48.086;11.632;2022-09-30T14:27:53;16.00;99.90
22430;DHT22;11382;48.086;11.632;2022-09-30T14:30:26;16.00;99.90
22430;DHT22;11382;48.086;11.632;2022-09-30T14:32:56;15.70;99.90
22430;DHT22;11382;48.086;11.632;2022-09-30T14:35:26;16.00;99.90
22430;DHT22;11382;48.086;11.632;2022-09-30T14:37:58;15.70;99.90
22430;DHT22;11382;48.086;11.632;2022-09-30T14:40:29;15.70;99.90
22430;DHT22;11382;48.086;11.632;2022-09-30T14:43:01;15.60;99.90
22430;DHT22;11382;48.086;11.632;2022-09-30T14:45:32;15.40;99.90
22430;DHT22;11382;48.086;11.632;2022-09-30T14:48:06;15.50;99.90
22430;DHT22;11382;48.086;11.632;2022-09-30T14:50:36;15.60;99.90
22430;DHT22;11382;48.086;11.632;2022-09-30T14:53:23;15.70;99.90
22430;DHT22;11382;48.086;11.632;2022-09-30T14:55:52;15.30;99.90
22430;DHT22;11382;48.086;11.632;2022-09-30T14:58:24;15.30;99.90
22430;DHT22;11382;48.086;11.632;2022-09-30T15:01:04;15.00;99.90
22430;DHT22;11382;48.086;11.632;2022-09-30T15:03:35;15.10;99.90
22430;DHT22;11382;48.086;11.632;2022-09-30T15:06:04;14.90;99.90
22430;DHT22;11382;48.086;11.632;2022-09-30T15:08:33;14.90;99.90
22430;DHT22;11382;48.086;11.632;2022-09-30T15:11:01;14.90;99.90
22430;DHT22;11382;48.086;11.632;2022-09-30T15:13:31;15.10;99.90
22430;DHT22;11382;48.086;11.632;2022-09-30T15:16:00;15.10;99.90
22430;DHT22;11382;48.086;11.632;2022-09-30T15:18:30;14.90;99.90
22430;DHT22;11382;48.086;11.632;2022-09-30T15:21:04;14.90;99.90
22430;DHT22;11382;48.086;11.632;2022-09-30T15:23:36;14.50;99.90
22430;DHT22;11382;48.086;11.632;2022-09-30T15:26:05;14.80;99.90
22430;DHT22;11382;48.086;11.632;2022-09-30T15:28:35;14.70;99.90
22430;DHT22;11382;48.086;11.632;2022-09-30T15:31:04;14.80;99.90
22430;DHT22;11382;48.086;11.632;2022-09-30T15:33:34;14.70;99.90
22430;DHT22;11382;48.086;11.632;2022-09-30T15:36:04;14.30;99.90
22430;DHT22;11382;48.086;11.632;2022-09-30T15:38:34;14.40;99.90
22430;DHT22;11382;48.086;11.632;2022-09-30T15:41:05;14.50;99.90
22430;DHT22;11382;48.086;11.632;2022-09-30T15:43:38;14.60;99.90
22430;DHT22;11382;48.086;11.632;2022-09-30T15:46:22;14.70;99.90
22430;DHT22;11382;48.086;11.632;2022-09-30T15:48:51;14.60;99.90
22430;DHT22;11382;48.086;11.632;2022-09-30T15:51:32;14.40;99.90
22430;DHT22;11382;48.086;11.632;2022-09-30T15:54:01;14.00;99.90
22430;DHT22;11382;48.086;11.632;2022-09-30T15:56:43;13.80;99.90
22430;DHT22;11382;48.086;11.632;2022-09-30T15:59:13;13.80;99.90
22430;DHT22;11382;48.086;11.632;2022-09-30T16:01:43;13.70;99.90
22430;DHT22;11382;48.086;11.632;2022-09-30T16:04:23;13.60;99.90
22430;DHT22;11382;48.086;11.632;2022-09-30T16:06:54;13.60;99.90
22430;DHT22;11382;48.086;11.632;2022-09-30T16:09:28;13.70;99.90
22430;DHT22;11382;48.086;11.632;2022-09-30T16:12:03;13.80;99.90
22430;DHT22;11382;48.086;11.632;2022-09-30T16:14:38;13.80;99.90
22430;DHT22;11382;48.086;11.632;2022-09-30T16:17:15;13.70;99.90
22430;DHT22;11382;48.086;11.632;2022-09-30T16:19:49;13.80;99.90
22430;DHT22;11382;48.086;11.632;2022-09-30T16:22:49;13.80;99.90
22430;DHT22;11382;48.086;11.632;2022-09-30T16:25:21;13.80;99.90
22430;DHT22;11382;48.086;11.632;2022-09-30T16:27:54;13.70;99.90
22430;DHT22;11382;48.086;11.632;2022-09-30T16:30:25;13.50;99.90